aviador You're here:

KLRF Decoded Metar

JACKSONVILLE in AR, USA
Report Time2017-10-17 19:56:00
UTC Time2017-10-17 20:31:13
Flight Rules vfr VFR
Wind040° at 04 kt
W.Decomp.*RWY 07: 3.4 kt HW 2.1 kt LCW
W.Rank040° ranks 8
Current wind is below 040° avg. (5.6)
Visibility9999 m
Phenomena:N/A
Clouds:N/A
Expected CloudBase > 7,200 ft AGL from Temp-Dew spread
CeilingNone
Temp22°C (ISA +8)
Dew Point04°C (31% RH)
AAT19.3°C
QNH1024 hPa
Density Alt945 ft
Elevation312 ft
Report Wrong Elevation
Raw Report
KLRF 171956Z AUTO 04004KT 10SM CLR 22/04 A3023 RMK AO2 SLP240
T02180044=

Extra information for KLRF:More info

Metar Taf Metar & Taf Last 4 Metars F.Rules Stats Wind Profile Meteogram Temp Stats Airport Information Weather charts Add Link Nearby VenuesMetar ALERT Operation Metar Decoded Social comments

AIRNAV info for KLRF